createdAt,value
2017-12-08T00:00:27.693Z,88.44
2017-12-08T00:02:55.254Z,88.37
2017-12-08T00:05:22.834Z,88.59
2017-12-08T00:07:50.411Z,89.28
2017-12-08T00:10:17.980Z,89.16
2017-12-08T00:12:45.549Z,89.49
2017-12-08T00:15:13.308Z,89.38
2017-12-08T00:17:40.870Z,89.30
2017-12-08T00:20:08.458Z,89.59
2017-12-08T00:22:36.035Z,89.45
2017-12-08T00:25:03.577Z,89.25
2017-12-08T00:27:31.161Z,89.21
2017-12-08T00:29:58.710Z,89.27
2017-12-08T00:32:26.258Z,89.57
2017-12-08T00:34:53.833Z,89.20
2017-12-08T00:37:21.434Z,89.25
2017-12-08T00:39:48.998Z,89.06
2017-12-08T00:42:16.581Z,88.91
2017-12-08T00:44:44.165Z,89.62
2017-12-08T00:47:11.713Z,89.81
2017-12-08T00:49:39.291Z,89.62
2017-12-08T00:52:06.889Z,90.19
2017-12-08T00:54:34.455Z,89.94
2017-12-08T00:57:02.048Z,90.33
2017-12-08T00:59:29.622Z,90.10
2017-12-08T01:01:57.221Z,90.34
2017-12-08T01:04:25.045Z,89.73
2017-12-08T01:06:52.770Z,89.70
2017-12-08T01:09:20.365Z,89.65
2017-12-08T01:11:47.975Z,89.51
2017-12-08T01:14:15.554Z,90.10
2017-12-08T01:16:43.147Z,90.12
2017-12-08T01:19:10.955Z,90.32
2017-12-08T01:21:38.513Z,89.91
2017-12-08T01:24:06.086Z,89.92
2017-12-08T01:26:33.679Z,89.73
2017-12-08T01:29:01.249Z,89.43
2017-12-08T01:31:28.843Z,89.16
2017-12-08T01:33:56.418Z,89.36
2017-12-08T01:36:24.161Z,89.84
2017-12-08T01:38:51.769Z,89.96
2017-12-08T01:41:19.383Z,90.00
2017-12-08T01:43:46.949Z,90.13
2017-12-08T01:46:14.531Z,89.90
2017-12-08T01:48:44.492Z,89.68
2017-12-08T01:51:12.954Z,89.10
2017-12-08T01:53:40.545Z,88.83
2017-12-08T01:56:08.108Z,88.98
2017-12-08T01:58:35.691Z,88.80
2017-12-08T02:01:03.361Z,89.33
2017-12-08T02:03:30.877Z,89.17
2017-12-08T02:05:58.434Z,88.62
2017-12-08T02:08:26.024Z,88.38
2017-12-08T02:10:53.589Z,87.79
2017-12-08T02:13:21.133Z,87.68
2017-12-08T02:15:48.777Z,87.84
2017-12-08T02:18:16.338Z,88.43
2017-12-08T02:20:43.900Z,88.48
2017-12-08T02:23:11.635Z,88.24
2017-12-08T02:25:39.261Z,87.67
2017-12-08T02:28:06.867Z,86.49
2017-12-08T02:30:34.443Z,86.81
2017-12-08T02:33:02.007Z,87.51
2017-12-08T02:35:29.610Z,87.34
2017-12-08T02:37:57.229Z,86.86
2017-12-08T02:40:24.802Z,86.80
2017-12-08T02:42:52.352Z,87.14
2017-12-08T02:45:19.924Z,87.60
2017-12-08T02:47:47.530Z,87.24
2017-12-08T02:50:15.094Z,87.29
2017-12-08T02:52:42.629Z,87.58
2017-12-08T02:55:10.500Z,87.26
2017-12-08T02:57:38.090Z,87.00
2017-12-08T03:00:05.833Z,86.71
2017-12-08T03:02:33.383Z,86.60
2017-12-08T03:05:00.972Z,87.20
2017-12-08T03:07:28.537Z,86.99
2017-12-08T03:09:57.649Z,87.22
2017-12-08T03:12:25.270Z,86.87
2017-12-08T03:14:52.824Z,86.63
2017-12-08T03:17:20.414Z,85.63
2017-12-08T03:19:48.789Z,84.83
2017-12-08T03:22:16.346Z,84.60
2017-12-08T03:24:43.935Z,84.48
2017-12-08T03:27:11.506Z,84.67
2017-12-08T03:29:39.075Z,84.88
2017-12-08T03:32:06.629Z,83.96
2017-12-08T03:34:34.233Z,83.45
2017-12-08T03:37:02.365Z,82.68
2017-12-08T03:39:30.008Z,82.57
2017-12-08T03:41:57.648Z,80.30
2017-12-08T03:44:25.234Z,79.11
2017-12-08T03:46:52.834Z,79.18
2017-12-08T03:49:20.932Z,78.28
2017-12-08T03:51:48.507Z,78.22
2017-12-08T03:54:16.062Z,75.68
2017-12-08T03:56:43.765Z,74.68
2017-12-08T03:59:11.322Z,74.93
2017-12-08T04:01:38.875Z,75.33
2017-12-08T04:04:06.474Z,75.04
2017-12-08T04:06:34.069Z,75.66
2017-12-08T04:09:06.482Z,76.29
2017-12-08T04:11:36.021Z,76.53
2017-12-08T04:14:04.489Z,76.70
2017-12-08T04:16:32.416Z,77.23
2017-12-08T04:19:01.101Z,77.51
2017-12-08T04:21:29.582Z,78.66
2017-12-08T04:23:57.162Z,78.92
2017-12-08T04:26:24.795Z,77.94
2017-12-08T04:28:52.341Z,77.50
2017-12-08T04:31:19.905Z,77.62
2017-12-08T04:33:47.486Z,77.81
2017-12-08T04:36:15.070Z,78.07
2017-12-08T04:38:42.631Z,77.79
2017-12-08T04:41:10.289Z,76.12
2017-12-08T04:43:37.844Z,74.84
2017-12-08T04:46:05.392Z,74.83
2017-12-08T04:48:32.961Z,75.39
2017-12-08T04:51:00.509Z,75.41
2017-12-08T04:53:28.250Z,75.40
2017-12-08T04:55:55.808Z,76.09
2017-12-08T04:58:23.520Z,75.45
2017-12-08T05:00:51.069Z,75.74
2017-12-08T05:03:18.656Z,76.92
2017-12-08T05:05:46.221Z,76.99
2017-12-08T05:08:13.813Z,77.94
2017-12-08T05:10:41.448Z,79.08
2017-12-08T05:13:09.022Z,79.79
2017-12-08T05:15:36.722Z,80.71
2017-12-08T05:18:04.522Z,80.34
2017-12-08T05:20:32.087Z,80.45
2017-12-08T05:22:59.712Z,81.23
2017-12-08T05:25:27.279Z,81.94
2017-12-08T05:27:54.845Z,81.60
2017-12-08T05:30:22.439Z,82.58
2017-12-08T05:32:50.004Z,82.87
2017-12-08T05:35:17.559Z,83.07
2017-12-08T05:37:45.159Z,82.41
2017-12-08T05:40:12.745Z,82.09
2017-12-08T05:42:40.292Z,82.29
2017-12-08T05:45:07.946Z,82.10
2017-12-08T05:47:35.517Z,81.92
2017-12-08T05:50:03.077Z,81.67
2017-12-08T05:52:30.685Z,81.65
2017-12-08T05:54:58.266Z,82.25
2017-12-08T05:57:25.815Z,82.58
2017-12-08T05:59:53.410Z,83.23
2017-12-08T06:02:21.037Z,83.86
2017-12-08T06:04:48.601Z,84.19
2017-12-08T06:07:16.202Z,84.37
2017-12-08T06:09:43.767Z,84.28
2017-12-08T06:12:11.338Z,84.15
2017-12-08T06:14:38.873Z,83.70
2017-12-08T06:17:06.522Z,83.46
2017-12-08T06:19:34.083Z,83.76
2017-12-08T06:22:01.657Z,83.58
2017-12-08T06:24:29.270Z,82.85
2017-12-08T06:26:56.841Z,82.83
2017-12-08T06:29:24.424Z,82.79
2017-12-08T06:31:52.071Z,82.88
2017-12-08T06:34:19.675Z,83.04
2017-12-08T06:36:47.253Z,83.61
2017-12-08T06:39:15.453Z,83.74
2017-12-08T06:41:43.078Z,83.81
2017-12-08T06:44:10.648Z,83.35
2017-12-08T06:46:38.264Z,83.54
2017-12-08T06:49:05.840Z,84.22
2017-12-08T06:51:33.410Z,84.23
2017-12-08T06:54:00.990Z,84.55
2017-12-08T06:56:28.561Z,83.85
2017-12-08T06:58:56.121Z,83.80
2017-12-08T07:01:23.693Z,83.87
2017-12-08T07:03:51.242Z,84.20
2017-12-08T07:06:18.806Z,84.51
2017-12-08T07:08:46.398Z,84.43
2017-12-08T07:11:13.971Z,84.67
2017-12-08T07:13:41.543Z,84.19
2017-12-08T07:16:09.266Z,84.95
2017-12-08T07:18:36.846Z,85.28
2017-12-08T07:21:04.409Z,84.65
2017-12-08T07:23:31.971Z,84.77
2017-12-08T07:25:59.541Z,85.02
2017-12-08T07:28:27.116Z,84.91
2017-12-08T07:30:55.179Z,84.63
2017-12-08T07:33:22.915Z,84.23
2017-12-08T07:35:50.491Z,84.76
2017-12-08T07:38:18.057Z,84.64
2017-12-08T07:40:45.618Z,84.61
2017-12-08T07:43:13.427Z,84.24
2017-12-08T07:45:41.003Z,84.31
2017-12-08T07:48:08.573Z,84.28
2017-12-08T07:50:36.160Z,84.39
2017-12-08T07:53:03.756Z,84.25
2017-12-08T07:55:31.307Z,83.38
2017-12-08T07:57:59.008Z,83.25
2017-12-08T08:00:26.597Z,83.48
2017-12-08T08:02:54.141Z,83.91
2017-12-08T08:05:21.727Z,83.56
2017-12-08T08:07:49.296Z,83.81
2017-12-08T08:10:16.871Z,83.19
2017-12-08T08:12:44.486Z,83.66
2017-12-08T08:15:12.042Z,83.60
2017-12-08T08:17:39.611Z,83.93
2017-12-08T08:20:07.216Z,83.54
2017-12-08T08:22:34.781Z,81.32
2017-12-08T08:25:02.346Z,76.64
2017-12-08T08:27:29.946Z,74.73
2017-12-08T08:29:57.501Z,73.54
2017-12-08T08:32:25.060Z,73.30
2017-12-08T08:34:52.662Z,72.86
2017-12-08T08:37:20.212Z,72.80
2017-12-08T08:39:47.792Z,73.02
2017-12-08T08:42:15.393Z,72.82
2017-12-08T08:44:42.929Z,72.34
2017-12-08T08:47:10.701Z,72.42
2017-12-08T08:49:38.292Z,71.49
2017-12-08T08:52:05.848Z,71.29
2017-12-08T08:54:33.419Z,71.15
2017-12-08T08:57:00.985Z,71.51
2017-12-08T08:59:28.545Z,71.51
2017-12-08T09:01:56.136Z,70.76
2017-12-08T09:04:23.707Z,70.21
2017-12-08T09:06:51.280Z,70.57
2017-12-08T09:09:18.920Z,70.93
2017-12-08T09:11:46.552Z,71.53
2017-12-08T09:14:14.097Z,71.42
2017-12-08T09:16:41.653Z,72.30
2017-12-08T09:19:09.332Z,72.51
2017-12-08T09:21:36.901Z,72.63
2017-12-08T09:24:04.476Z,72.28
2017-12-08T09:26:32.115Z,73.09
2017-12-08T09:28:59.690Z,73.09
2017-12-08T09:31:27.265Z,73.83
2017-12-08T09:33:55.025Z,74.53
2017-12-08T09:36:22.626Z,75.25
2017-12-08T09:38:50.225Z,75.05
2017-12-08T09:41:17.818Z,75.44
2017-12-08T09:43:45.409Z,75.79
2017-12-08T09:46:12.976Z,76.07
2017-12-08T09:48:40.542Z,76.24
2017-12-08T09:51:08.108Z,75.92
2017-12-08T09:53:35.652Z,75.80
2017-12-08T09:56:03.267Z,76.16
2017-12-08T09:58:30.880Z,76.36
2017-12-08T10:00:58.413Z,76.77
2017-12-08T10:03:25.977Z,76.09
2017-12-08T10:05:53.554Z,76.01
2017-12-08T10:08:21.101Z,76.53
2017-12-08T10:10:48.666Z,76.73
2017-12-08T10:13:16.225Z,75.81
2017-12-08T10:15:43.813Z,76.68
2017-12-08T10:18:11.416Z,76.57
2017-12-08T10:20:38.984Z,77.18
2017-12-08T10:23:06.566Z,78.31
2017-12-08T10:25:34.162Z,78.53
2017-12-08T10:28:01.773Z,79.70
2017-12-08T10:30:30.391Z,80.13
2017-12-08T10:32:57.965Z,79.45
2017-12-08T10:35:25.535Z,79.36
2017-12-08T10:37:53.134Z,79.45
2017-12-08T10:40:20.669Z,78.98
2017-12-08T10:42:48.252Z,79.67
2017-12-08T10:45:15.830Z,79.07
2017-12-08T10:47:43.401Z,79.47
2017-12-08T10:50:10.960Z,80.09
2017-12-08T10:52:38.542Z,79.93
2017-12-08T10:55:06.165Z,80.94
2017-12-08T10:57:33.729Z,81.25
2017-12-08T11:00:01.333Z,81.47
2017-12-08T11:02:28.874Z,81.84
2017-12-08T11:04:56.488Z,83.35
2017-12-08T11:07:24.144Z,83.04
2017-12-08T11:09:52.428Z,83.26
2017-12-08T11:12:20.123Z,82.62
2017-12-08T11:14:47.691Z,82.62
2017-12-08T11:17:15.243Z,83.08
2017-12-08T11:19:48.976Z,82.80
2017-12-08T11:22:16.715Z,83.36
2017-12-08T11:24:44.477Z,84.41
2017-12-08T11:27:12.080Z,85.06
2017-12-08T11:29:39.620Z,84.83
2017-12-08T11:32:07.201Z,84.29
2017-12-08T11:34:34.907Z,82.80
2017-12-08T11:37:02.533Z,84.11
2017-12-08T11:39:30.149Z,84.05
2017-12-08T11:41:57.772Z,84.03
2017-12-08T11:44:25.348Z,84.43
2017-12-08T11:46:52.905Z,84.79
2017-12-08T11:49:20.514Z,85.06
2017-12-08T11:51:48.850Z,85.55
2017-12-08T11:54:16.402Z,85.80
2017-12-08T11:56:43.976Z,85.78
2017-12-08T11:59:11.584Z,86.28
2017-12-08T12:01:39.169Z,87.03
2017-12-08T12:04:06.733Z,86.60
2017-12-08T12:06:34.333Z,87.06
2017-12-08T12:09:01.873Z,87.42
2017-12-08T12:11:29.553Z,87.20
2017-12-08T12:13:57.096Z,86.46
2017-12-08T12:16:24.841Z,86.64
2017-12-08T12:18:52.412Z,87.23
2017-12-08T12:21:19.978Z,87.53
2017-12-08T12:23:47.549Z,87.58
2017-12-08T12:26:15.118Z,87.56
2017-12-08T12:28:42.693Z,87.81
2017-12-08T12:31:10.348Z,88.45
2017-12-08T12:33:37.888Z,88.83
2017-12-08T12:36:05.646Z,88.90
2017-12-08T12:38:33.184Z,89.06
2017-12-08T12:41:00.733Z,89.83
2017-12-08T12:43:28.314Z,89.90
2017-12-08T12:45:55.867Z,90.19
2017-12-08T12:48:23.437Z,89.95
2017-12-08T12:50:51.041Z,89.89
2017-12-08T12:53:18.606Z,90.17
2017-12-08T12:55:46.153Z,89.25
2017-12-08T12:58:13.742Z,89.44
2017-12-08T13:00:41.314Z,89.89
2017-12-08T13:03:09.106Z,89.40
2017-12-08T13:05:36.751Z,88.70
2017-12-08T13:08:04.439Z,90.05
2017-12-08T13:10:31.987Z,90.67
2017-12-08T13:12:59.568Z,90.94
2017-12-08T13:15:27.196Z,91.33
2017-12-08T13:17:54.753Z,90.73
2017-12-08T13:20:22.310Z,90.43
2017-12-08T13:22:49.857Z,91.09
2017-12-08T13:25:17.402Z,91.08
2017-12-08T13:27:45.002Z,91.48
2017-12-08T13:30:12.622Z,91.68
2017-12-08T13:32:40.169Z,91.43
2017-12-08T13:35:08.129Z,91.64
2017-12-08T13:37:36.344Z,91.31
2017-12-08T13:40:03.897Z,91.42
2017-12-08T13:42:31.513Z,91.61
2017-12-08T13:44:59.116Z,92.29
2017-12-08T13:47:26.685Z,91.26
2017-12-08T13:49:54.294Z,91.81
2017-12-08T13:52:22.063Z,92.14
2017-12-08T13:55:01.355Z,92.24
2017-12-08T13:57:30.956Z,92.85
2017-12-08T13:59:58.516Z,92.13
2017-12-08T14:02:26.080Z,92.69
2017-12-08T14:04:53.652Z,92.74
2017-12-08T14:07:21.228Z,93.31
2017-12-08T14:09:48.801Z,93.37
2017-12-08T14:12:16.332Z,92.88
2017-12-08T14:14:43.925Z,93.11
2017-12-08T14:17:11.526Z,92.52
2017-12-08T14:19:39.081Z,93.03
2017-12-08T14:22:06.653Z,93.39
2017-12-08T14:24:34.210Z,93.54
2017-12-08T14:27:01.752Z,93.40
2017-12-08T14:29:29.414Z,93.44
2017-12-08T14:31:56.966Z,93.57
2017-12-08T14:34:24.705Z,93.80
2017-12-08T14:36:52.316Z,93.90
2017-12-08T14:39:19.931Z,93.88
2017-12-08T14:41:47.462Z,93.49
2017-12-08T14:44:15.049Z,93.85
2017-12-08T14:46:42.580Z,94.00
2017-12-08T14:49:11.378Z,94.02
2017-12-08T14:51:39.046Z,93.30
2017-12-08T14:54:06.774Z,93.61
2017-12-08T14:56:34.361Z,93.46
2017-12-08T14:59:01.922Z,93.31
2017-12-08T15:01:29.443Z,93.43
2017-12-08T15:03:57.024Z,93.43
2017-12-08T15:06:24.595Z,93.79
2017-12-08T15:08:52.142Z,93.62
2017-12-08T15:11:19.761Z,93.63
2017-12-08T15:13:47.380Z,93.47
2017-12-08T15:16:18.332Z,93.82
2017-12-08T15:18:45.924Z,93.95
2017-12-08T15:21:13.495Z,93.89
2017-12-08T15:23:41.161Z,94.12
2017-12-08T15:26:08.739Z,94.27
2017-12-08T15:28:36.349Z,94.23
2017-12-08T15:31:03.897Z,93.75
2017-12-08T15:33:31.606Z,93.26
2017-12-08T15:35:59.430Z,93.48
2017-12-08T15:38:27.006Z,93.49
2017-12-08T15:40:54.575Z,93.48
2017-12-08T15:43:22.172Z,93.50
2017-12-08T15:45:49.713Z,93.45
2017-12-08T15:48:17.237Z,92.52
2017-12-08T15:50:44.875Z,92.90
2017-12-08T15:53:12.661Z,92.82
2017-12-08T15:55:40.282Z,92.94
2017-12-08T15:58:07.878Z,92.52
2017-12-08T16:00:35.680Z,92.50
2017-12-08T16:03:03.284Z,92.27
2017-12-08T16:05:30.930Z,90.92
2017-12-08T16:07:58.508Z,91.30
2017-12-08T16:10:26.183Z,91.88
2017-12-08T16:12:53.737Z,90.29
2017-12-08T16:15:21.305Z,90.18
2017-12-08T16:17:48.893Z,90.11
2017-12-08T16:20:16.430Z,89.98
2017-12-08T16:22:44.009Z,90.15
2017-12-08T16:25:11.864Z,89.52
2017-12-08T16:27:39.428Z,89.54
2017-12-08T16:30:07.033Z,90.59
2017-12-08T16:32:34.616Z,89.43
2017-12-08T16:35:02.161Z,89.53
2017-12-08T16:37:29.798Z,89.46
2017-12-08T16:39:57.345Z,88.89
2017-12-08T16:42:24.903Z,89.79
2017-12-08T16:44:52.456Z,88.74
2017-12-08T16:47:20.011Z,89.06
2017-12-08T16:49:47.580Z,89.17
2017-12-08T16:52:15.141Z,88.05
2017-12-08T16:54:42.686Z,88.65
2017-12-08T16:57:10.445Z,88.34
2017-12-08T16:59:38.512Z,88.65
2017-12-08T17:02:06.073Z,88.89
2017-12-08T17:04:33.658Z,88.86
2017-12-08T17:07:01.229Z,88.99
2017-12-08T17:09:28.842Z,88.75
2017-12-08T17:11:56.346Z,89.07
2017-12-08T17:14:23.901Z,89.07
2017-12-08T17:16:51.504Z,89.59
2017-12-08T17:19:19.040Z,89.37
2017-12-08T17:21:46.618Z,90.20
2017-12-08T17:24:14.238Z,90.05
2017-12-08T17:26:42.025Z,90.58
2017-12-08T17:29:09.840Z,89.48
2017-12-08T17:31:37.427Z,89.26
2017-12-08T17:34:05.040Z,88.34
2017-12-08T17:36:32.655Z,88.59
2017-12-08T17:39:00.218Z,88.02
2017-12-08T17:41:27.821Z,88.32
2017-12-08T17:43:55.382Z,88.65
2017-12-08T17:46:22.922Z,88.83
2017-12-08T17:48:50.485Z,87.62
2017-12-08T17:51:18.037Z,87.68
2017-12-08T17:53:45.630Z,87.75
2017-12-08T17:56:13.200Z,87.50
2017-12-08T17:58:40.750Z,87.32
2017-12-08T18:01:08.329Z,87.48
2017-12-08T18:03:35.860Z,87.54
2017-12-08T18:06:03.467Z,87.16
2017-12-08T18:08:31.017Z,86.61
2017-12-08T18:10:58.577Z,86.77
2017-12-08T18:13:26.393Z,86.11
2017-12-08T18:15:53.950Z,86.68
2017-12-08T18:18:21.533Z,86.79
2017-12-08T18:20:49.154Z,86.42
2017-12-08T18:23:16.706Z,87.20
2017-12-08T18:25:44.250Z,87.20
2017-12-08T18:28:11.860Z,87.09
2017-12-08T18:30:39.396Z,86.84
2017-12-08T18:33:07.050Z,86.67
2017-12-08T18:35:34.629Z,87.23
2017-12-08T18:38:02.203Z,87.81
2017-12-08T18:40:29.769Z,87.31
2017-12-08T18:42:57.353Z,87.31
2017-12-08T18:45:24.920Z,87.96
2017-12-08T18:47:52.490Z,87.99
2017-12-08T18:50:20.936Z,88.46
2017-12-08T18:52:48.512Z,89.16
2017-12-08T18:55:16.080Z,89.33
2017-12-08T18:57:43.722Z,89.60
2017-12-08T19:00:11.271Z,89.66
2017-12-08T19:02:38.834Z,90.04
2017-12-08T19:05:08.383Z,90.58
2017-12-08T19:07:36.054Z,91.24
2017-12-08T19:10:05.102Z,91.84
2017-12-08T19:12:32.805Z,92.73
2017-12-08T19:15:00.384Z,93.09
2017-12-08T19:17:27.946Z,93.15
2017-12-08T19:19:55.496Z,93.26
2017-12-08T19:22:23.096Z,93.28
2017-12-08T19:24:50.662Z,93.50
2017-12-08T19:27:18.249Z,93.49
2017-12-08T19:29:45.810Z,93.43
2017-12-08T19:32:13.371Z,92.29
2017-12-08T19:34:40.932Z,90.61
2017-12-08T19:37:09.053Z,90.15
2017-12-08T19:39:36.619Z,90.05
2017-12-08T19:42:04.184Z,89.56
2017-12-08T19:44:31.761Z,89.47
2017-12-08T19:46:59.358Z,89.85
2017-12-08T19:49:26.908Z,90.20
2017-12-08T19:51:54.493Z,89.45
2017-12-08T19:54:22.035Z,89.78
2017-12-08T19:56:49.608Z,89.47
2017-12-08T19:59:17.197Z,89.94
2017-12-08T20:01:45.379Z,89.47
2017-12-08T20:04:13.009Z,89.93
2017-12-08T20:06:40.577Z,90.49
2017-12-08T20:09:08.243Z,90.20
2017-12-08T20:11:35.780Z,89.72
2017-12-08T20:14:03.404Z,89.44
2017-12-08T20:16:30.958Z,89.59
2017-12-08T20:18:58.659Z,89.15
2017-12-08T20:21:26.212Z,89.44
2017-12-08T20:23:53.801Z,89.10
2017-12-08T20:26:21.367Z,88.98
2017-12-08T20:28:48.908Z,88.59
2017-12-08T20:31:16.471Z,87.44
2017-12-08T20:33:44.032Z,87.29
2017-12-08T20:36:11.587Z,85.93
2017-12-08T20:38:39.140Z,85.85
2017-12-08T20:41:06.779Z,85.95
2017-12-08T20:43:34.333Z,85.11
2017-12-08T20:46:01.841Z,82.26
2017-12-08T20:48:29.387Z,84.05
2017-12-08T20:50:56.962Z,83.60
2017-12-08T20:53:24.589Z,82.80
2017-12-08T20:55:52.136Z,82.27
2017-12-08T20:58:19.718Z,81.23
2017-12-08T21:00:47.314Z,82.51
2017-12-08T21:03:14.929Z,81.93
2017-12-08T21:05:42.514Z,83.25
2017-12-08T21:08:10.130Z,82.38
2017-12-08T21:10:37.706Z,82.00
2017-12-08T21:13:05.313Z,83.05
2017-12-08T21:15:33.506Z,83.19
2017-12-08T21:18:01.045Z,83.19
2017-12-08T21:20:28.597Z,83.23
2017-12-08T21:22:56.183Z,80.39
2017-12-08T21:25:23.751Z,81.02
2017-12-08T21:27:51.314Z,81.36
2017-12-08T21:30:18.906Z,79.37
2017-12-08T21:32:46.467Z,79.32
2017-12-08T21:35:14.006Z,78.75
2017-12-08T21:37:41.584Z,79.65
2017-12-08T21:40:09.143Z,78.04
2017-12-08T21:42:36.678Z,79.53
2017-12-08T21:45:04.503Z,79.12
2017-12-08T21:47:32.088Z,79.04
2017-12-08T21:49:59.632Z,80.58
2017-12-08T21:52:27.219Z,80.92
2017-12-08T21:54:54.764Z,80.86
2017-12-08T21:57:22.320Z,80.81
2017-12-08T21:59:49.946Z,79.48
2017-12-08T22:02:17.521Z,80.21
2017-12-08T22:04:45.071Z,79.91
2017-12-08T22:07:12.618Z,80.13
2017-12-08T22:09:40.224Z,79.90
2017-12-08T22:12:07.811Z,80.23
2017-12-08T22:14:35.387Z,80.85
2017-12-08T22:17:02.976Z,81.20
2017-12-08T22:19:30.537Z,81.59
2017-12-08T22:21:58.150Z,82.37
2017-12-08T22:24:25.741Z,83.37
2017-12-08T22:26:53.298Z,83.58
2017-12-08T22:29:20.921Z,84.08
2017-12-08T22:31:48.498Z,84.27
2017-12-08T22:34:16.059Z,84.58
2017-12-08T22:36:43.606Z,84.05
2017-12-08T22:39:11.206Z,84.34
2017-12-08T22:41:38.795Z,84.22
2017-12-08T22:44:06.379Z,83.39
2017-12-08T22:46:34.009Z,83.86
2017-12-08T22:49:01.542Z,82.84
2017-12-08T22:51:29.089Z,82.20
2017-12-08T22:53:56.686Z,81.84
2017-12-08T22:56:24.316Z,82.63
2017-12-08T22:58:51.873Z,81.63
2017-12-08T23:01:19.472Z,82.08
2017-12-08T23:03:47.064Z,81.93
2017-12-08T23:06:14.621Z,82.56
2017-12-08T23:08:42.224Z,82.21
2017-12-08T23:11:09.779Z,82.32
2017-12-08T23:13:37.367Z,82.60
2017-12-08T23:16:04.930Z,81.62
2017-12-08T23:18:32.473Z,81.49
2017-12-08T23:21:00.058Z,81.10
2017-12-08T23:23:27.615Z,81.13
2017-12-08T23:25:55.190Z,81.04
2017-12-08T23:28:22.735Z,81.04
2017-12-08T23:30:50.310Z,81.03
2017-12-08T23:33:17.862Z,80.15
2017-12-08T23:35:45.398Z,80.60
2017-12-08T23:38:12.938Z,81.28
2017-12-08T23:40:40.596Z,80.82
2017-12-08T23:43:08.476Z,80.94
2017-12-08T23:45:36.035Z,80.90
2017-12-08T23:48:03.637Z,81.29
2017-12-08T23:50:31.196Z,80.79
2017-12-08T23:52:58.753Z,80.14
2017-12-08T23:55:26.460Z,79.52
2017-12-08T23:57:54.041Z,79.32
